Time;durP1;ratioP1;P1;durP2;ratioP2;P2;SDS_P1;SDS_P2;PMS_P1;PMS_P2;Temp;Humidity;BMP_temperature;BMP_pressure;BME280_temperature;BME280_humidity;BME280_pressure;Samples;Min_cycle;Max_cycle;Signal;HPM_P1;HPM_P2
2021/05/26 00:02:21;;;;;;;1.98;1.45;;;;;;;21.88;48.17;99499.09;4916984;29;20058;-81
2021/05/26 00:04:47;;;;;;;3.10;1.80;;;;;;;22.34;48.44;99589.19;4900074;29;20034;-81
2021/05/26 00:07:12;;;;;;;3.15;2.08;;;;;;;21.78;48.88;99520.50;4900220;29;20016;-81
2021/05/26 00:09:38;;;;;;;3.85;2.08;;;;;;;22.25;49.04;99585.28;4899810;29;20114;-80
2021/05/26 00:12:04;;;;;;;5.68;2.80;;;;;;;21.67;49.54;99503.44;4899856;29;20460;-81
2021/05/26 00:14:29;;;;;;;3.35;2.50;;;;;;;21.91;49.53;99533.53;4899795;29;20082;-80
2021/05/26 00:16:54;;;;;;;2.90;2.20;;;;;;;22.08;49.76;99555.00;4899682;29;20156;-81
2021/05/26 00:19:20;;;;;;;4.70;2.67;;;;;;;21.55;49.72;99470.50;4916795;29;20511;-81
2021/05/26 00:21:45;;;;;;;5.22;2.92;;;;;;;22.13;49.88;99565.81;4899707;29;20031;-81
2021/05/26 00:24:11;;;;;;;2.90;2.70;;;;;;;21.91;50.34;99544.28;4899858;29;20123;-81
2021/05/26 00:26:36;;;;;;;5.22;3.10;;;;;;;21.68;50.47;99510.44;4899540;29;20031;-81
2021/05/26 00:29:02;;;;;;;5.28;2.90;;;;;;;21.90;50.82;99534.59;4916784;29;20028;-80
2021/05/26 00:31:28;;;;;;;4.82;3.03;;;;;;;21.79;50.96;99530.19;4899775;29;20024;-81
2021/05/26 00:33:53;;;;;;;4.32;3.10;;;;;;;21.66;51.16;99517.94;4899840;29;20051;-81
2021/05/26 00:36:18;;;;;;;3.60;3.30;;;;;;;21.87;51.27;99556.63;4899772;29;20563;-80
2021/05/26 00:38:44;;;;;;;4.60;3.33;;;;;;;21.73;51.00;99526.63;4899470;29;20090;-81
2021/05/26 00:41:10;;;;;;;3.42;3.13;;;;;;;21.03;51.17;99413.72;4899833;29;20031;-81
2021/05/26 00:43:36;;;;;;;4.47;3.03;;;;;;;21.88;51.08;99558.25;4899478;29;20411;-81
2021/05/26 00:46:02;;;;;;;4.93;3.10;;;;;;;21.86;51.35;99552.31;4899440;29;20025;-81
2021/05/26 00:48:27;;;;;;;4.60;3.33;;;;;;;21.49;51.22;99501.84;4916597;29;20023;-81
2021/05/26 00:50:53;;;;;;;5.35;3.20;;;;;;;21.65;51.30;99531.63;4902829;29;20032;-81
2021/05/26 00:53:19;;;;;;;4.40;2.97;;;;;;;21.18;51.22;99470.28;4901198;29;20036;-81
2021/05/26 00:55:44;;;;;;;3.63;3.00;;;;;;;21.59;50.92;99538.00;4916238;29;20032;-80
2021/05/26 00:58:10;;;;;;;5.97;3.08;;;;;;;21.52;50.58;99538.16;4898978;29;20035;-81
2021/05/26 01:00:38;;;;;;;6.78;3.58;;;;;;;21.31;50.71;99512.91;4899130;29;20563;-81
2021/05/26 01:03:04;;;;;;;4.65;3.00;;;;;;;21.60;50.38;99556.56;4899246;29;20126;-81
2021/05/26 01:05:31;;;;;;;4.05;2.70;;;;;;;21.46;50.64;99553.41;4899213;29;20558;-81
2021/05/26 01:07:57;;;;;;;5.10;3.00;;;;;;;21.26;50.26;99523.59;4899191;29;20039;-81
2021/05/26 01:10:25;;;;;;;3.65;2.88;;;;;;;21.22;50.15;99525.97;4916007;29;20411;-81
2021/05/26 01:12:51;;;;;;;4.45;2.63;;;;;;;21.44;50.13;99546.66;4898933;29;20032;-81
2021/05/26 01:15:17;;;;;;;4.35;3.28;;;;;;;21.01;49.89;99488.31;4899001;29;20028;-81
2021/05/26 01:17:43;;;;;;;3.17;2.63;;;;;;;21.15;49.96;99508.38;4899051;29;20032;-81
2021/05/26 01:20:12;;;;;;;5.90;3.00;;;;;;;21.38;49.77;99548.47;4899200;29;20123;-81
2021/05/26 01:22:38;;;;;;;3.00;2.80;;;;;;;21.33;49.95;99550.25;4915910;29;20084;-81
2021/05/26 01:25:06;;;;;;;4.57;2.80;;;;;;;21.42;49.69;99552.28;4915990;29;20036;-80
2021/05/26 01:27:32;;;;;;;4.35;2.80;;;;;;;21.05;49.75;99502.84;4898906;29;20024;-81
2021/05/26 01:29:59;;;;;;;4.38;3.30;;;;;;;21.04;49.82;99503.91;4916104;29;20084;-81
2021/05/26 01:32:25;;;;;;;5.55;2.85;;;;;;;20.65;49.66;99435.97;4898944;29;20032;-81
2021/05/26 01:34:50;;;;;;;5.07;2.70;;;;;;;21.09;49.55;99517.41;4916053;29;20036;-81
2021/05/26 01:37:16;;;;;;;4.68;3.20;;;;;;;21.30;49.78;99558.81;4915665;29;20036;-81
2021/05/26 01:39:41;;;;;;;6.10;3.28;;;;;;;20.92;49.92;99502.16;4915545;29;20526;-81
2021/05/26 01:42:07;;;;;;;6.57;3.15;;;;;;;21.22;49.92;99549.28;4915793;29;20024;-81
2021/05/26 01:44:34;;;;;;;4.18;2.97;;;;;;;20.83;50.07;99511.69;4915888;29;20028;-81
2021/05/26 01:47:00;;;;;;;3.72;2.80;;;;;;;20.98;50.07;99532.56;4898884;29;20024;-81
2021/05/26 01:49:26;;;;;;;4.95;2.65;;;;;;;21.18;50.04;99540.91;4916007;29;20051;-81
2021/05/26 01:51:52;;;;;;;5.82;2.80;;;;;;;20.82;49.94;99501.19;4914637;29;20028;-81
2021/05/26 01:54:17;;;;;;;4.05;2.70;;;;;;;21.19;49.91;99547.09;4915790;29;20056;-81
2021/05/26 01:56:43;;;;;;;5.43;2.80;;;;;;;21.00;49.84;99516.22;4915707;29;20034;-80
2021/05/26 01:59:08;;;;;;;5.38;2.90;;;;;;;20.93;49.81;99524.44;4898700;29;20030;-81
2021/05/26 02:01:34;;;;;;;4.60;2.70;;;;;;;21.17;49.73;99546.53;4898802;29;20411;-81
2021/05/26 02:04:00;;;;;;;4.80;2.60;;;;;;;20.92;49.73;99522.81;4899037;29;20024;-81
2021/05/26 02:06:26;;;;;;;4.18;2.75;;;;;;;20.96;49.51;99536.53;4916006;29;20032;-81
2021/05/26 02:08:53;;;;;;;4.78;2.78;;;;;;;21.04;49.59;99561.09;4898747;29;20427;-81
2021/05/26 02:14:05;;;;;;;5.72;2.70;;;;;;;20.80;49.29;99530.91;4916478;29;20030;-81
2021/05/26 02:16:31;;;;;;;2.80;2.45;;;;;;;20.90;49.25;99555.25;4901112;29;20087;-81
2021/05/26 02:18:56;;;;;;;4.32;2.50;;;;;;;20.90;49.25;99557.13;4902900;29;20016;-81
2021/05/26 02:21:22;;;;;;;4.15;2.53;;;;;;;20.61;49.32;99514.25;4903018;29;20510;-82
2021/05/26 02:23:47;;;;;;;3.65;2.40;;;;;;;20.83;49.11;99541.19;4902365;29;20024;-81
2021/05/26 02:26:14;;;;;;;5.13;2.45;;;;;;;20.97;49.33;99584.63;4919172;29;20483;-81
2021/05/26 02:28:40;;;;;;;4.57;3.15;;;;;;;20.90;49.68;99563.31;4902169;29;20032;-81
2021/05/26 02:31:09;;;;;;;4.72;3.28;;;;;;;20.94;50.08;99569.81;4901982;29;20514;-81
2021/05/26 02:33:36;;;;;;;4.78;3.92;;;;;;;20.18;50.31;99460.41;4901978;29;20031;-81
2021/05/26 02:36:02;;;;;;;5.63;3.53;;;;;;;20.83;50.67;99578.75;4901731;29;20356;-81
2021/05/26 02:38:28;;;;;;;5.97;4.00;;;;;;;20.49;50.86;99537.66;4901456;29;20048;-81
2021/05/26 02:40:53;;;;;;;4.45;4.05;;;;;;;20.54;51.01;99553.03;4918765;29;20028;-81
2021/05/26 02:43:19;;;;;;;4.57;4.00;;;;;;;20.04;51.35;99515.34;4901603;29;20056;-81
2021/05/26 02:45:44;;;;;;;5.80;3.90;;;;;;;19.86;51.69;99502.97;4918548;29;20032;-81
2021/05/26 02:48:10;;;;;;;6.57;4.35;;;;;;;20.39;51.41;99568.84;4901461;29;20032;-81
2021/05/26 02:50:35;;;;;;;4.70;3.75;;;;;;;19.73;51.30;99460.38;4901569;29;20028;-81
2021/05/26 02:53:01;;;;;;;4.38;3.97;;;;;;;20.33;51.46;99572.47;4918717;29;20051;-81
2021/05/26 02:55:27;;;;;;;5.72;3.78;;;;;;;19.96;51.43;99522.72;4901649;29;20570;-81
2021/05/26 02:57:52;;;;;;;4.88;4.00;;;;;;;20.57;51.57;99606.19;4901337;29;20040;-81
2021/05/26 03:00:20;;;;;;;4.43;3.60;;;;;;;20.48;51.41;99591.56;4901276;29;20024;-81
2021/05/26 03:02:46;;;;;;;6.03;3.88;;;;;;;20.51;51.46;99609.84;4918253;29;20027;-81
2021/05/26 03:05:13;;;;;;;6.15;3.50;;;;;;;20.60;51.66;99614.56;4901311;29;20024;-81
2021/05/26 03:07:41;;;;;;;8.85;4.18;;;;;;;20.60;51.59;99603.03;4918170;29;20518;-81
2021/05/26 03:10:09;;;;;;;6.30;3.95;;;;;;;20.61;51.57;99610.03;4900965;29;20036;-81
2021/05/26 03:12:35;;;;;;;5.65;3.75;;;;;;;20.46;51.47;99590.97;4901293;29;20036;-81
2021/05/26 03:15:01;;;;;;;5.57;3.78;;;;;;;20.35;51.57;99589.94;4918276;29;20404;-81
2021/05/26 03:17:28;;;;;;;6.00;3.50;;;;;;;20.37;51.95;99603.94;4900949;29;20028;-81
2021/05/26 03:19:58;;;;;;;6.07;3.63;;;;;;;20.36;51.86;99620.25;4918036;29;20023;-81
2021/05/26 03:22:24;;;;;;;6.03;3.83;;;;;;;20.00;52.16;99590.06;4900935;29;20096;-82
2021/05/26 03:24:49;;;;;;;7.82;4.00;;;;;;;19.80;52.18;99552.97;4901213;29;20032;-82
2021/05/26 03:27:15;;;;;;;7.65;4.00;;;;;;;19.98;52.39;99592.16;4899859;29;20031;-82
2021/05/26 03:29:41;;;;;;;7.47;3.88;;;;;;;20.03;52.44;99586.91;4917922;29;20082;-82
2021/05/26 03:32:07;;;;;;;5.47;4.10;;;;;;;19.85;52.21;99565.66;4917574;29;20032;-81
2021/05/26 03:34:33;;;;;;;6.50;4.07;;;;;;;19.83;52.31;99557.84;4900727;29;20036;-81
2021/05/26 03:36:58;;;;;;;7.95;3.92;;;;;;;19.83;52.51;99573.94;4900880;29;20083;-81
2021/05/26 03:39:24;;;;;;;4.80;3.67;;;;;;;19.80;52.37;99565.53;4900295;29;20088;-81
2021/05/26 03:41:49;;;;;;;6.22;4.20;;;;;;;19.69;52.16;99535.06;4917382;29;20545;-81
2021/05/26 03:44:15;;;;;;;6.05;4.20;;;;;;;20.31;52.24;99629.84;4900550;29;20188;-81
2021/05/26 03:46:40;;;;;;;8.05;3.85;;;;;;;20.05;52.49;99600.88;4917567;29;20023;-82
2021/05/26 03:49:06;;;;;;;5.88;3.95;;;;;;;19.84;52.50;99580.91;4905892;29;20032;-82
2021/05/26 03:51:32;;;;;;;6.35;3.75;;;;;;;20.23;52.47;99632.91;4906126;29;20550;-81
2021/05/26 03:53:57;;;;;;;8.27;4.35;;;;;;;20.14;52.49;99620.94;4900774;29;20103;-81
2021/05/26 03:56:23;;;;;;;6.90;4.70;;;;;;;20.07;52.75;99603.34;4917675;29;20074;-81
2021/05/26 03:58:48;;;;;;;6.60;4.30;;;;;;;20.07;53.00;99606.84;4900374;29;20024;-81
2021/05/26 04:01:14;;;;;;;5.75;4.05;;;;;;;20.11;52.80;99623.28;4917225;29;20111;-81
2021/05/26 04:03:39;;;;;;;6.88;4.97;;;;;;;20.14;53.04;99642.38;4900312;29;20035;-81
2021/05/26 04:06:05;;;;;;;7.68;4.90;;;;;;;20.33;53.02;99637.66;4900379;29;20479;-81
2021/05/26 04:08:31;;;;;;;5.00;4.50;;;;;;;20.19;52.91;99631.75;4900248;29;20024;-81
2021/05/26 04:10:56;;;;;;;5.40;4.53;;;;;;;19.85;53.05;99552.25;4900341;29;20035;-81
2021/05/26 04:13:22;;;;;;;7.53;5.20;;;;;;;20.30;52.97;99622.84;4900406;29;20072;-81
2021/05/26 04:15:47;;;;;;;8.05;4.82;;;;;;;20.13;52.92;99611.25;4900321;29;20031;-81
2021/05/26 04:18:12;;;;;;;10.10;4.75;;;;;;;20.20;52.78;99616.47;4916996;29;20500;-81
2021/05/26 04:20:38;;;;;;;7.80;4.95;;;;;;;20.42;52.94;99646.16;4899782;29;20491;-81
2021/05/26 04:23:05;;;;;;;11.15;5.32;;;;;;;20.41;53.00;99631.94;4900179;29;20502;-81
2021/05/26 04:25:30;;;;;;;5.55;4.97;;;;;;;20.27;52.72;99601.88;4917181;29;20027;-81
2021/05/26 04:27:56;;;;;;;8.57;5.47;;;;;;;19.86;52.66;99527.91;4899936;29;20024;-81
2021/05/26 04:30:22;;;;;;;13.48;4.93;;;;;;;20.37;52.79;99613.84;4899636;29;20024;-81
2021/05/26 04:32:47;;;;;;;8.02;5.30;;;;;;;20.09;52.67;99569.91;4916726;29;20024;-81
2021/05/26 04:35:13;;;;;;;9.85;5.30;;;;;;;20.59;52.65;99650.50;4899784;29;20416;-81
2021/05/26 04:37:39;;;;;;;12.70;5.00;;;;;;;20.58;52.51;99669.53;4899615;29;20495;-81
2021/05/26 04:40:05;;;;;;;12.55;6.20;;;;;;;20.29;52.65;99610.50;4916295;29;20124;-81
2021/05/26 04:42:31;;;;;;;14.45;5.90;;;;;;;20.34;52.56;99625.06;4916680;29;20130;-81
2021/05/26 04:44:56;;;;;;;13.13;6.65;;;;;;;20.60;52.51;99656.69;4899423;29;20067;-81
2021/05/26 04:47:22;;;;;;;14.48;6.35;;;;;;;20.68;52.46;99661.66;4899796;29;20402;-81
2021/05/26 04:49:48;;;;;;;10.90;5.72;;;;;;;20.08;52.32;99554.06;4899686;29;20092;-81
2021/05/26 04:52:13;;;;;;;13.95;6.80;;;;;;;20.61;52.10;99659.13;4899283;29;20020;-81
2021/05/26 04:54:39;;;;;;;15.75;7.18;;;;;;;20.52;52.05;99623.00;4899685;29;20024;-81
2021/05/26 04:57:05;;;;;;;15.27;6.90;;;;;;;20.38;52.02;99596.69;4916398;29;20543;-81
2021/05/26 04:59:30;;;;;;;13.60;6.70;;;;;;;20.86;51.71;99669.53;4899474;29;20487;-81
2021/05/26 05:01:56;;;;;;;17.33;7.40;;;;;;;20.84;51.73;99673.50;4899356;29;20032;-81
2021/05/26 05:04:21;;;;;;;12.48;6.20;;;;;;;20.50;51.75;99587.56;4899329;29;20075;-81
2021/05/26 05:06:47;;;;;;;15.57;6.82;;;;;;;21.12;51.59;99692.25;4916316;29;20407;-81
2021/05/26 05:09:12;;;;;;;12.60;6.65;;;;;;;20.27;51.74;99552.81;4899007;29;20036;-81
2021/05/26 05:11:41;;;;;;;13.00;6.05;;;;;;;21.19;51.60;99697.47;4899403;29;20028;-81
2021/05/26 05:14:07;;;;;;;23.90;10.13;;;;;;;21.27;51.25;99689.03;4899198;29;20032;-81
2021/05/26 05:16:32;;;;;;;17.40;10.45;;;;;;;21.28;51.08;99689.84;4916309;29;20043;-81
2021/05/26 05:18:58;;;;;;;24.35;11.38;;;;;;;21.25;51.17;99683.09;4901556;29;20122;-81
2021/05/26 05:21:24;;;;;;;26.60;11.80;;;;;;;21.33;50.85;99687.22;4899132;29;20038;-82
2021/05/26 05:23:49;;;;;;;26.25;11.93;;;;;;;21.32;51.12;99670.31;4916344;29;20544;-81
2021/05/26 05:26:15;;;;;;;23.55;10.93;;;;;;;21.05;51.37;99610.25;4899271;29;20036;-81
2021/05/26 05:28:40;;;;;;;26.90;10.75;;;;;;;21.17;51.57;99632.44;4916079;29;20483;-81
2021/05/26 05:31:06;;;;;;;28.75;10.20;;;;;;;21.52;51.87;99693.97;4914726;29;20032;-82
2021/05/26 05:33:31;;;;;;;18.30;9.18;;;;;;;20.98;51.88;99601.53;4916182;29;20034;-81
2021/05/26 05:35:57;;;;;;;14.90;7.38;;;;;;;20.97;52.13;99594.53;4915847;29;20495;-81
2021/05/26 05:38:22;;;;;;;11.98;6.93;;;;;;;21.54;52.20;99689.19;4898849;29;20053;-81
2021/05/26 05:40:48;;;;;;;12.27;7.75;;;;;;;21.44;51.95;99672.91;4898955;29;20023;-81
2021/05/26 05:43:14;;;;;;;11.90;7.68;;;;;;;21.19;52.11;99635.69;4915889;29;20031;-81
2021/05/26 05:45:40;;;;;;;13.48;6.85;;;;;;;21.52;52.21;99693.97;4916085;29;20492;-82
2021/05/26 05:48:06;;;;;;;16.17;7.13;;;;;;;21.37;52.29;99665.00;4899025;29;20086;-81
2021/05/26 05:50:32;;;;;;;14.75;7.13;;;;;;;21.47;52.04;99692.03;4900121;29;20028;-81
2021/05/26 05:52:57;;;;;;;12.05;6.10;;;;;;;21.26;51.78;99633.69;4902904;29;20111;-81
2021/05/26 05:55:23;;;;;;;17.08;6.32;;;;;;;21.31;51.73;99635.63;4902647;29;20024;-81
2021/05/26 05:57:48;;;;;;;12.27;6.25;;;;;;;21.34;51.29;99635.16;4902945;29;20534;-81
2021/05/26 06:00:14;;;;;;;11.30;6.13;;;;;;;21.66;51.17;99695.28;4919918;29;20029;-81
2021/05/26 06:02:40;;;;;;;10.48;5.32;;;;;;;21.47;51.29;99643.69;4902897;29;20060;-81
2021/05/26 06:05:06;;;;;;;8.10;5.60;;;;;;;21.69;50.73;99676.00;4902579;29;20032;-81
2021/05/26 06:07:32;;;;;;;11.18;6.25;;;;;;;21.92;50.71;99696.47;4917362;29;20111;-82
2021/05/26 06:09:57;;;;;;;9.00;5.28;;;;;;;21.74;49.75;99649.19;4922802;29;20029;-81
2021/05/26 06:12:23;;;;;;;13.48;5.32;;;;;;;21.63;49.65;99635.84;4896224;29;20042;-82
2021/05/26 06:14:48;;;;;;;11.27;5.25;;;;;;;21.73;49.89;99627.94;4908217;29;20024;-81
2021/05/26 06:17:14;;;;;;;8.88;4.13;;;;;;;22.24;49.43;99693.13;4919019;29;20016;-82
2021/05/26 06:19:39;;;;;;;9.32;4.00;;;;;;;22.29;49.36;99687.81;4913681;29;20028;-82
2021/05/26 06:22:05;;;;;;;8.32;4.03;;;;;;;22.05;48.84;99645.03;4906469;29;20526;-83
2021/05/26 06:24:30;;;;;;;9.68;3.80;;;;;;;22.40;48.33;99697.66;4907819;29;20028;-83
2021/05/26 06:26:56;;;;;;;5.88;3.08;;;;;;;22.30;48.24;99659.88;4917977;29;20032;-82
2021/05/26 06:29:21;;;;;;;6.90;4.72;;;;;;;21.95;47.80;99609.13;4935776;29;20023;-83
2021/05/26 06:31:47;;;;;;;5.85;3.15;;;;;;;20.94;47.55;99440.16;4914895;29;20035;-82
2021/05/26 06:34:12;;;;;;;4.65;2.70;;;;;;;22.43;47.43;99660.31;4909978;29;20054;-83
2021/05/26 06:36:38;;;;;;;6.38;2.90;;;;;;;21.39;47.21;99500.91;4918747;29;20115;-82
2021/05/26 06:39:05;;;;;;;5.68;3.58;;;;;;;22.62;47.39;99676.91;4901698;29;20048;-83
2021/05/26 06:41:31;;;;;;;5.68;2.50;;;;;;;22.47;47.21;99655.22;4919842;29;20070;-83
2021/05/26 06:43:57;;;;;;;7.85;2.97;;;;;;;22.22;47.37;99603.81;4921471;29;20031;-83
2021/05/26 06:46:22;;;;;;;6.72;3.00;;;;;;;22.29;47.25;99607.13;4919086;29;20039;-82
2021/05/26 06:48:48;;;;;;;5.90;3.65;;;;;;;22.37;47.14;99595.94;4916722;29;20030;-84
2021/05/26 06:51:13;;;;;;;5.97;2.90;;;;;;;22.98;46.93;99685.34;4902164;29;20032;-83
2021/05/26 06:53:39;;;;;;;6.47;3.40;;;;;;;23.03;46.99;99671.94;4919288;29;20024;-83
2021/05/26 06:56:05;;;;;;;9.98;5.07;;;;;;;22.76;46.83;99632.38;4899381;29;20094;-82
2021/05/26 06:58:30;;;;;;;6.07;4.57;;;;;;;22.90;46.87;99646.25;4912728;29;20040;-83
2021/05/26 07:00:56;;;;;;;4.97;2.83;;;;;;;22.90;46.53;99622.00;4895540;29;20032;-82
2021/05/26 07:03:22;;;;;;;6.55;2.83;;;;;;;23.22;46.45;99664.31;4899565;29;20024;-83
2021/05/26 07:05:48;;;;;;;8.27;3.10;;;;;;;23.27;46.46;99673.25;4898654;29;20028;-82
2021/05/26 07:08:14;;;;;;;6.40;2.95;;;;;;;23.28;46.49;99649.81;4900227;29;20040;-83
2021/05/26 07:10:39;;;;;;;4.70;3.10;;;;;;;22.63;46.18;99533.22;4898973;29;20059;-82
2021/05/26 07:13:06;;;;;;;8.20;3.45;;;;;;;23.23;46.34;99626.34;4907141;29;20039;-86
2021/05/26 07:15:32;;;;;;;5.80;3.28;;;;;;;23.65;46.08;99679.47;4915808;29;20036;-86
2021/05/26 07:18:05;;;;;;;5.97;5.03;;;;;;;23.59;46.37;99654.34;4897666;29;20475;-83
2021/05/26 07:20:31;;;;;;;8.73;3.60;;;;;;;23.68;46.17;99677.06;4894613;29;20468;-85
2021/05/26 07:22:57;;;;;;;5.75;3.40;;;;;;;22.86;46.03;99525.88;4914905;29;20067;-83
2021/05/26 07:25:23;;;;;;;5.45;3.55;;;;;;;23.87;45.87;99669.38;4914911;29;20496;-85
2021/05/26 07:27:48;;;;;;;4.63;3.00;;;;;;;23.79;46.05;99647.47;4895738;29;20135;-82
2021/05/26 07:30:14;;;;;;;4.13;3.72;;;;;;;23.78;46.03;99614.28;4924771;29;20055;-82
2021/05/26 07:32:40;;;;;;;5.38;4.13;;;;;;;23.77;46.24;99604.56;4910220;29;20043;-82
2021/05/26 07:40:20;;;;;;;5.13;4.53;;;;;;;23.87;48.50;99637.00;4913116;23;20121;-80
2021/05/26 07:42:45;;;;;;;6.93;5.28;;;;;;;24.33;47.87;99680.38;4948462;28;20055;-81
2021/05/26 07:45:11;;;;;;;8.50;4.80;;;;;;;24.16;47.74;99631.19;4934827;28;20099;-84
2021/05/26 07:47:37;;;;;;;7.72;5.07;;;;;;;24.25;47.31;99622.31;4942150;29;20055;-84
2021/05/26 07:52:37;;;;;;;10.05;6.72;;;;;;;24.23;47.31;99584.00;4858793;23;20052;-83
2021/05/26 07:55:03;;;;;;;7.78;5.35;;;;;;;24.58;47.29;99620.28;4903344;29;20512;-83
2021/05/26 07:57:28;;;;;;;7.05;6.32;;;;;;;24.63;46.66;99591.41;4899112;29;20024;-83
2021/05/26 07:59:54;;;;;;;8.43;5.20;;;;;;;24.73;46.90;99609.50;4901735;29;20028;-82
2021/05/26 08:02:19;;;;;;;11.57;5.90;;;;;;;24.37;46.77;99531.16;4907185;29;20092;-85
2021/05/26 08:04:45;;;;;;;8.40;5.68;;;;;;;25.34;46.96;99667.09;4904777;29;20036;-85
2021/05/26 08:07:11;;;;;;;7.45;5.55;;;;;;;24.99;46.62;99603.03;4900555;29;20035;-84
2021/05/26 08:09:37;;;;;;;7.10;5.60;;;;;;;25.25;46.56;99625.44;4902957;29;20032;-83
2021/05/26 08:12:04;;;;;;;8.30;5.10;;;;;;;25.53;46.41;99647.59;4905231;29;20103;-85
2021/05/26 08:14:31;;;;;;;6.55;5.75;;;;;;;25.41;45.99;99620.03;4901876;29;20085;-84
2021/05/26 08:16:58;;;;;;;8.30;5.10;;;;;;;25.29;45.71;99604.13;4908098;29;20469;-82
2021/05/26 08:19:24;;;;;;;6.32;4.28;;;;;;;25.73;45.29;99652.16;4909585;29;20101;-84
2021/05/26 08:21:50;;;;;;;9.07;6.15;;;;;;;25.39;45.48;99578.97;4908650;29;20107;-83
2021/05/26 08:24:16;;;;;;;8.95;4.60;;;;;;;26.01;45.60;99662.38;4908837;29;20493;-77
2021/05/26 08:26:41;;;;;;;8.15;4.80;;;;;;;26.10;45.47;99668.84;4905727;29;20398;-77
2021/05/26 08:29:07;;;;;;;10.07;4.85;;;;;;;26.15;45.68;99659.88;4909515;29;20043;-76
2021/05/26 08:31:33;;;;;;;6.88;5.03;;;;;;;25.84;45.53;99607.78;4903427;29;20033;-76
2021/05/26 08:33:58;;;;;;;6.78;4.45;;;;;;;26.20;45.22;99655.25;4908794;29;20033;-76
2021/05/26 08:36:24;;;;;;;6.03;5.13;;;;;;;26.02;45.19;99600.97;4904134;29;20051;-79
2021/05/26 08:38:51;;;;;;;11.93;5.55;;;;;;;26.25;45.09;99624.66;4905166;29;20032;-78
2021/05/26 08:41:19;;;;;;;6.60;5.13;;;;;;;26.19;44.90;99607.63;4908528;29;20043;-78
2021/05/26 08:43:45;;;;;;;7.10;5.00;;;;;;;26.50;44.72;99638.06;4899971;29;20573;-78
2021/05/26 08:46:11;;;;;;;5.78;4.95;;;;;;;26.18;44.87;99572.72;4901694;29;20024;-77
2021/05/26 08:48:37;;;;;;;7.97;6.43;;;;;;;26.46;44.88;99620.75;4892276;29;20051;-77
2021/05/26 08:51:06;;;;;;;8.82;5.30;;;;;;;26.38;44.87;99569.91;4885337;29;20412;-78
2021/05/26 08:53:33;;;;;;;8.73;5.90;;;;;;;26.33;44.69;99572.66;4877914;29;20028;-77
2021/05/26 08:55:59;;;;;;;9.23;6.20;;;;;;;26.63;44.19;99579.75;4867770;29;20041;-78
2021/05/26 08:58:24;;;;;;;7.28;6.18;;;;;;;26.20;44.02;99479.34;4874071;29;20025;-77
2021/05/26 09:00:49;;;;;;;9.88;8.50;;;;;;;27.27;44.02;99643.75;4878674;29;20013;-79
2021/05/26 09:03:15;;;;;;;8.80;6.53;;;;;;;26.50;43.90;99502.69;4871817;29;20528;-75
2021/05/26 09:05:42;;;;;;;10.00;6.03;;;;;;;26.85;43.91;99538.69;4875070;29;20032;-74
2021/05/26 09:08:23;;;;;;;7.90;5.90;;;;;;;27.59;43.36;99636.97;4873611;29;20526;-77
2021/05/26 09:10:56;;;;;;;10.70;5.78;;;;;;;27.74;43.37;99632.19;4865231;29;20029;-76
2021/05/26 09:13:34;;;;;;;7.07;6.20;;;;;;;27.93;43.13;99631.44;4865812;29;20078;-75
2021/05/26 09:16:01;;;;;;;12.52;6.32;;;;;;;28.12;42.49;99624.94;4871326;29;20046;-78
2021/05/26 09:18:27;;;;;;;7.18;6.10;;;;;;;27.80;42.26;99543.41;4874571;29;20025;-77
2021/05/26 09:20:53;;;;;;;7.80;6.05;;;;;;;28.29;42.13;99599.25;4868190;29;20047;-83
2021/05/26 09:23:29;;;;;;;11.73;6.68;;;;;;;28.01;41.98;99541.22;4875690;29;20026;-77
2021/05/26 09:25:57;;;;;;;11.00;8.63;;;;;;;28.07;41.55;99549.00;4871380;29;20020;-77
2021/05/26 09:28:30;;;;;;;13.98;7.25;;;;;;;28.79;41.13;99620.22;4867411;29;20068;-76
2021/05/26 09:31:01;;;;;;;12.35;7.30;;;;;;;28.83;41.16;99616.91;4872905;29;20112;-76
2021/05/26 09:33:28;;;;;;;9.18;7.40;;;;;;;28.92;40.91;99624.13;4873977;29;20510;-77
2021/05/26 09:36:15;;;;;;;9.02;6.63;;;;;;;28.80;40.18;99583.78;4871112;29;20615;-76
2021/05/26 09:38:45;;;;;;;9.93;8.27;;;;;;;29.05;40.69;99628.81;4873019;29;20029;-76
2021/05/26 09:41:14;;;;;;;9.10;8.05;;;;;;;28.76;40.60;99573.81;4875642;29;20033;-76
2021/05/26 09:43:49;;;;;;;9.50;7.18;;;;;;;28.93;40.15;99593.09;4874277;29;20036;-78
2021/05/26 09:46:27;;;;;;;9.63;8.15;;;;;;;28.23;40.71;99527.91;4875983;29;20070;-76
2021/05/26 09:48:59;;;;;;;8.23;7.45;;;;;;;28.63;41.12;99623.47;4872990;29;20093;-76
2021/05/26 09:51:29;;;;;;;9.63;8.27;;;;;;;28.29;41.30;99545.75;4865974;29;20053;-76
2021/05/26 09:54:11;;;;;;;12.20;6.70;;;;;;;29.03;40.63;99595.69;4869584;29;20121;-77
2021/05/26 09:56:38;;;;;;;12.00;7.78;;;;;;;29.06;40.44;99600.53;4874793;29;20033;-77
2021/05/26 09:59:04;;;;;;;12.95;8.70;;;;;;;28.89;40.50;99564.91;4865977;29;20044;-79
2021/05/26 10:01:31;;;;;;;10.57;7.90;;;;;;;28.64;40.92;99538.13;4871903;29;20036;-78
2021/05/26 10:03:56;;;;;;;13.88;9.93;;;;;;;28.69;40.70;99535.34;4872816;29;20107;-77
2021/05/26 10:06:24;;;;;;;8.20;7.32;;;;;;;29.08;40.68;99578.47;4875404;29;20039;-77
2021/05/26 10:08:49;;;;;;;9.23;7.78;;;;;;;29.10;40.80;99573.53;4861888;29;20030;-78
2021/05/26 10:11:15;;;;;;;8.43;7.55;;;;;;;29.09;40.68;99506.69;4865046;29;20115;-78
2021/05/26 10:13:43;;;;;;;8.23;7.20;;;;;;;29.97;39.61;99581.66;4867684;29;20028;-77
2021/05/26 10:16:09;;;;;;;8.63;7.70;;;;;;;29.71;39.72;99517.97;4871935;29;20489;-78
2021/05/26 10:18:36;;;;;;;10.23;7.25;;;;;;;30.14;39.12;99542.91;4877813;29;20040;-78
2021/05/26 10:21:02;;;;;;;9.23;7.00;;;;;;;30.43;39.09;99572.47;4877721;29;20099;-77
2021/05/26 10:23:28;;;;;;;8.13;7.32;;;;;;;30.25;38.54;99551.66;4869897;29;20414;-83
2021/05/26 10:25:54;;;;;;;9.85;7.43;;;;;;;29.94;38.53;99454.31;4863834;29;20141;-83
2021/05/26 10:28:31;;;;;;;11.07;7.97;;;;;;;30.74;37.61;99561.69;4876224;29;20037;-82
2021/05/26 10:30:58;;;;;;;10.65;8.50;;;;;;;30.66;38.38;99586.97;4875733;29;20025;-82
2021/05/26 10:33:44;;;;;;;9.77;8.18;;;;;;;30.45;38.62;99539.47;4874400;29;20478;-83
2021/05/26 10:36:11;;;;;;;12.15;10.10;;;;;;;30.30;38.33;99503.31;4869497;29;20041;-83
2021/05/26 10:38:59;;;;;;;9.77;8.77;;;;;;;30.50;38.33;99566.63;4876190;29;20048;-83
2021/05/26 10:41:26;;;;;;;10.05;7.43;;;;;;;30.19;38.79;99550.97;4861427;29;20044;-83
2021/05/26 10:43:57;;;;;;;7.57;6.88;;;;;;;29.09;38.99;99362.59;4873951;29;20509;-83
2021/05/26 10:46:34;;;;;;;7.15;6.50;;;;;;;30.32;38.93;99552.03;4869687;29;20025;-83
2021/05/26 10:49:03;;;;;;;8.82;7.95;;;;;;;30.51;38.66;99562.78;4873673;29;20033;-83
2021/05/26 10:51:53;;;;;;;8.43;7.13;;;;;;;30.62;38.22;99556.81;4878829;29;20116;-84
2021/05/26 10:54:40;;;;;;;7.90;6.57;;;;;;;30.74;38.36;99558.16;4872939;29;20032;-82
2021/05/26 10:57:07;;;;;;;7.80;6.93;;;;;;;30.32;38.44;99511.97;4872881;29;20025;-81
2021/05/26 10:59:33;;;;;;;8.18;7.38;;;;;;;30.07;38.72;99504.41;4871711;29;20176;-82
2021/05/26 11:02:11;;;;;;;10.82;7.95;;;;;;;30.24;38.68;99556.31;4872634;29;20533;-84
2021/05/26 11:04:38;;;;;;;8.70;6.60;;;;;;;30.21;38.76;99499.72;4866976;29;20071;-84
2021/05/26 11:07:24;;;;;;;11.50;6.93;;;;;;;30.54;38.22;99546.63;4874447;29;20083;-83
2021/05/26 11:10:01;;;;;;;11.45;9.35;;;;;;;30.36;38.00;99474.03;4875996;29;20036;-84
2021/05/26 11:12:27;;;;;;;13.20;8.70;;;;;;;30.76;37.99;99543.13;4872650;29;20056;-83
2021/05/26 11:14:56;;;;;;;13.38;11.45;;;;;;;30.71;37.77;99521.44;4867522;29;20033;-83
2021/05/26 11:17:27;;;;;;;11.35;10.20;;;;;;;30.85;37.70;99524.88;4870670;29;20060;-82
2021/05/26 11:20:05;;;;;;;;;;;;;;;31.18;37.23;99522.66;4878493;29;20029;-83
2021/05/26 11:22:31;;;;;;;12.43;10.07;;;;;;;31.21;36.83;99493.94;4871289;29;19987;-83
2021/05/26 11:24:57;;;;;;;7.38;6.70;;;;;;;30.83;36.62;99441.81;4872856;29;20489;-82
2021/05/26 11:27:23;;;;;;;13.35;10.05;;;;;;;31.63;36.57;99503.41;4863662;29;20116;-83
2021/05/26 11:29:55;;;;;;;8.93;6.88;;;;;;;31.85;36.09;99483.38;4867410;29;20111;-83
2021/05/26 11:32:22;;;;;;;7.88;6.65;;;;;;;31.96;35.82;99481.97;4866782;29;20037;-83
2021/05/26 11:34:50;;;;;;;8.15;6.90;;;;;;;31.57;36.20;99441.91;4868447;29;20109;-84
2021/05/26 11:37:35;;;;;;;9.52;6.47;;;;;;;31.45;36.65;99491.63;4885662;29;20048;-84
2021/05/26 11:40:02;;;;;;;10.32;7.78;;;;;;;31.32;36.54;99443.47;4862654;29;20033;-83
2021/05/26 11:42:30;;;;;;;10.73;6.72;;;;;;;31.75;36.19;99476.31;4874139;29;20092;-83